sensor_id;sensor_type;location;lat;lon;timestamp;P1;durP1;ratioP1;P2;durP2;ratioP2
68353;SDS011;55274;43.060;25.618;2024-01-15T00:00:40;32.92;;;15.43;;
68353;SDS011;55274;43.060;25.618;2024-01-15T00:03:06;32.70;;;14.60;;
68353;SDS011;55274;43.060;25.618;2024-01-15T00:05:32;39.38;;;15.85;;
68353;SDS011;55274;43.060;25.618;2024-01-15T00:07:58;36.03;;;16.77;;
68353;SDS011;55274;43.060;25.618;2024-01-15T00:10:24;38.47;;;15.57;;
68353;SDS011;55274;43.060;25.618;2024-01-15T00:12:49;29.58;;;13.77;;
68353;SDS011;55274;43.060;25.618;2024-01-15T00:15:15;29.20;;;13.95;;
68353;SDS011;55274;43.060;25.618;2024-01-15T00:17:41;29.92;;;13.30;;
68353;SDS011;55274;43.060;25.618;2024-01-15T00:20:07;44.13;;;15.15;;
68353;SDS011;55274;43.060;25.618;2024-01-15T00:22:33;34.53;;;15.68;;
68353;SDS011;55274;43.060;25.618;2024-01-15T00:25:01;28.95;;;14.15;;
68353;SDS011;55274;43.060;25.618;2024-01-15T00:27:27;34.33;;;14.38;;
68353;SDS011;55274;43.060;25.618;2024-01-15T00:29:53;37.85;;;13.70;;
68353;SDS011;55274;43.060;25.618;2024-01-15T00:32:19;32.33;;;14.55;;
68353;SDS011;55274;43.060;25.618;2024-01-15T00:34:45;26.52;;;13.60;;
68353;SDS011;55274;43.060;25.618;2024-01-15T00:37:11;34.75;;;14.48;;
68353;SDS011;55274;43.060;25.618;2024-01-15T00:39:38;31.02;;;13.73;;
68353;SDS011;55274;43.060;25.618;2024-01-15T00:42:03;37.75;;;14.93;;
68353;SDS011;55274;43.060;25.618;2024-01-15T00:44:29;32.90;;;12.93;;
68353;SDS011;55274;43.060;25.618;2024-01-15T00:46:55;30.58;;;13.43;;
68353;SDS011;55274;43.060;25.618;2024-01-15T00:49:21;31.60;;;13.30;;
68353;SDS011;55274;43.060;25.618;2024-01-15T00:51:47;29.15;;;11.88;;
68353;SDS011;55274;43.060;25.618;2024-01-15T00:54:13;25.98;;;13.20;;
68353;SDS011;55274;43.060;25.618;2024-01-15T00:56:38;32.83;;;14.07;;
68353;SDS011;55274;43.060;25.618;2024-01-15T00:59:04;28.08;;;13.70;;
68353;SDS011;55274;43.060;25.618;2024-01-15T01:01:30;30.38;;;13.82;;
68353;SDS011;55274;43.060;25.618;2024-01-15T01:03:56;29.55;;;12.82;;
68353;SDS011;55274;43.060;25.618;2024-01-15T01:06:22;33.35;;;14.48;;
68353;SDS011;55274;43.060;25.618;2024-01-15T01:08:47;36.28;;;12.55;;
68353;SDS011;55274;43.060;25.618;2024-01-15T01:11:15;32.95;;;13.52;;
68353;SDS011;55274;43.060;25.618;2024-01-15T01:13:41;28.80;;;10.43;;
68353;SDS011;55274;43.060;25.618;2024-01-15T01:16:07;25.60;;;12.70;;
68353;SDS011;55274;43.060;25.618;2024-01-15T01:18:33;28.88;;;12.82;;
68353;SDS011;55274;43.060;25.618;2024-01-15T01:20:59;33.33;;;13.32;;
68353;SDS011;55274;43.060;25.618;2024-01-15T01:23:25;30.05;;;11.95;;
68353;SDS011;55274;43.060;25.618;2024-01-15T01:25:51;26.15;;;12.68;;
68353;SDS011;55274;43.060;25.618;2024-01-15T01:28:17;35.00;;;13.43;;
68353;SDS011;55274;43.060;25.618;2024-01-15T01:30:43;25.75;;;13.18;;
68353;SDS011;55274;43.060;25.618;2024-01-15T01:33:09;27.42;;;12.82;;
68353;SDS011;55274;43.060;25.618;2024-01-15T01:35:34;26.73;;;11.43;;
68353;SDS011;55274;43.060;25.618;2024-01-15T01:38:01;28.40;;;12.55;;
68353;SDS011;55274;43.060;25.618;2024-01-15T01:40:26;24.95;;;11.43;;
68353;SDS011;55274;43.060;25.618;2024-01-15T01:42:52;28.83;;;13.25;;
68353;SDS011;55274;43.060;25.618;2024-01-15T01:45:18;32.58;;;12.95;;
68353;SDS011;55274;43.060;25.618;2024-01-15T01:47:44;29.10;;;13.55;;
68353;SDS011;55274;43.060;25.618;2024-01-15T01:50:10;29.00;;;12.60;;
68353;SDS011;55274;43.060;25.618;2024-01-15T01:52:37;34.67;;;13.05;;
68353;SDS011;55274;43.060;25.618;2024-01-15T01:55:03;30.30;;;12.95;;
68353;SDS011;55274;43.060;25.618;2024-01-15T01:57:30;28.85;;;13.00;;
68353;SDS011;55274;43.060;25.618;2024-01-15T01:59:57;32.25;;;12.45;;
68353;SDS011;55274;43.060;25.618;2024-01-15T02:02:23;29.20;;;12.40;;
68353;SDS011;55274;43.060;25.618;2024-01-15T02:04:49;26.50;;;11.90;;
68353;SDS011;55274;43.060;25.618;2024-01-15T02:07:15;30.73;;;11.73;;
68353;SDS011;55274;43.060;25.618;2024-01-15T02:09:43;33.83;;;12.40;;
68353;SDS011;55274;43.060;25.618;2024-01-15T02:12:10;28.42;;;12.20;;
68353;SDS011;55274;43.060;25.618;2024-01-15T02:14:36;27.77;;;12.45;;
68353;SDS011;55274;43.060;25.618;2024-01-15T02:17:02;28.17;;;12.65;;
68353;SDS011;55274;43.060;25.618;2024-01-15T02:19:28;29.05;;;13.07;;
68353;SDS011;55274;43.060;25.618;2024-01-15T02:21:54;28.27;;;11.68;;
68353;SDS011;55274;43.060;25.618;2024-01-15T02:24:19;34.08;;;14.13;;
68353;SDS011;55274;43.060;25.618;2024-01-15T02:26:45;38.42;;;14.40;;
68353;SDS011;55274;43.060;25.618;2024-01-15T02:29:11;35.60;;;12.88;;
68353;SDS011;55274;43.060;25.618;2024-01-15T02:31:39;32.00;;;13.38;;
68353;SDS011;55274;43.060;25.618;2024-01-15T02:34:04;31.90;;;12.98;;
68353;SDS011;55274;43.060;25.618;2024-01-15T02:36:30;30.77;;;12.48;;
68353;SDS011;55274;43.060;25.618;2024-01-15T02:38:56;29.23;;;13.77;;
68353;SDS011;55274;43.060;25.618;2024-01-15T02:41:22;25.08;;;12.60;;
68353;SDS011;55274;43.060;25.618;2024-01-15T02:43:48;27.90;;;13.07;;
68353;SDS011;55274;43.060;25.618;2024-01-15T02:46:14;30.00;;;12.82;;
68353;SDS011;55274;43.060;25.618;2024-01-15T02:48:41;31.17;;;12.85;;
68353;SDS011;55274;43.060;25.618;2024-01-15T02:51:07;28.23;;;13.30;;
68353;SDS011;55274;43.060;25.618;2024-01-15T02:53:32;36.17;;;14.15;;
68353;SDS011;55274;43.060;25.618;2024-01-15T02:55:59;24.95;;;11.38;;
68353;SDS011;55274;43.060;25.618;2024-01-15T02:58:24;27.15;;;12.02;;
68353;SDS011;55274;43.060;25.618;2024-01-15T03:00:50;25.00;;;11.43;;
68353;SDS011;55274;43.060;25.618;2024-01-15T03:03:16;31.85;;;13.88;;
68353;SDS011;55274;43.060;25.618;2024-01-15T03:05:42;25.90;;;12.13;;
68353;SDS011;55274;43.060;25.618;2024-01-15T03:08:07;27.92;;;12.05;;
68353;SDS011;55274;43.060;25.618;2024-01-15T03:10:33;27.00;;;11.20;;
68353;SDS011;55274;43.060;25.618;2024-01-15T03:12:59;28.70;;;10.90;;
68353;SDS011;55274;43.060;25.618;2024-01-15T03:15:25;24.42;;;11.68;;
68353;SDS011;55274;43.060;25.618;2024-01-15T03:17:50;36.83;;;13.40;;
68353;SDS011;55274;43.060;25.618;2024-01-15T03:20:16;26.65;;;12.15;;
68353;SDS011;55274;43.060;25.618;2024-01-15T03:22:42;34.72;;;12.02;;
68353;SDS011;55274;43.060;25.618;2024-01-15T03:25:08;29.65;;;13.80;;
68353;SDS011;55274;43.060;25.618;2024-01-15T03:27:34;29.33;;;13.27;;
68353;SDS011;55274;43.060;25.618;2024-01-15T03:30:00;27.65;;;13.35;;
68353;SDS011;55274;43.060;25.618;2024-01-15T03:32:27;27.83;;;13.35;;
68353;SDS011;55274;43.060;25.618;2024-01-15T03:34:53;29.42;;;13.32;;
68353;SDS011;55274;43.060;25.618;2024-01-15T03:37:18;27.88;;;12.70;;
68353;SDS011;55274;43.060;25.618;2024-01-15T03:39:44;30.80;;;13.65;;
68353;SDS011;55274;43.060;25.618;2024-01-15T03:42:11;29.58;;;12.23;;
68353;SDS011;55274;43.060;25.618;2024-01-15T03:44:36;32.03;;;13.23;;
68353;SDS011;55274;43.060;25.618;2024-01-15T03:47:02;32.47;;;13.38;;
68353;SDS011;55274;43.060;25.618;2024-01-15T03:49:28;32.75;;;13.32;;
68353;SDS011;55274;43.060;25.618;2024-01-15T03:51:54;37.33;;;13.43;;
68353;SDS011;55274;43.060;25.618;2024-01-15T03:54:20;28.25;;;14.23;;
68353;SDS011;55274;43.060;25.618;2024-01-15T03:56:45;35.35;;;15.60;;
68353;SDS011;55274;43.060;25.618;2024-01-15T03:59:11;34.40;;;13.82;;
68353;SDS011;55274;43.060;25.618;2024-01-15T04:01:37;28.70;;;13.00;;
68353;SDS011;55274;43.060;25.618;2024-01-15T04:04:03;36.90;;;14.60;;
68353;SDS011;55274;43.060;25.618;2024-01-15T04:06:29;35.13;;;11.85;;
68353;SDS011;55274;43.060;25.618;2024-01-15T04:08:54;30.55;;;14.18;;
68353;SDS011;55274;43.060;25.618;2024-01-15T04:11:20;40.58;;;14.15;;
68353;SDS011;55274;43.060;25.618;2024-01-15T04:13:47;36.97;;;14.55;;
68353;SDS011;55274;43.060;25.618;2024-01-15T04:16:13;31.55;;;13.68;;
68353;SDS011;55274;43.060;25.618;2024-01-15T04:18:39;33.10;;;14.68;;
68353;SDS011;55274;43.060;25.618;2024-01-15T04:21:05;33.97;;;12.70;;
68353;SDS011;55274;43.060;25.618;2024-01-15T04:23:32;33.15;;;14.68;;
68353;SDS011;55274;43.060;25.618;2024-01-15T04:25:58;40.85;;;15.13;;
68353;SDS011;55274;43.060;25.618;2024-01-15T04:28:24;27.33;;;13.43;;
68353;SDS011;55274;43.060;25.618;2024-01-15T04:30:49;37.88;;;15.07;;
68353;SDS011;55274;43.060;25.618;2024-01-15T04:33:15;31.83;;;13.20;;
68353;SDS011;55274;43.060;25.618;2024-01-15T04:35:41;34.72;;;13.07;;
68353;SDS011;55274;43.060;25.618;2024-01-15T04:38:07;36.80;;;13.23;;
68353;SDS011;55274;43.060;25.618;2024-01-15T04:40:33;29.08;;;13.40;;
68353;SDS011;55274;43.060;25.618;2024-01-15T04:42:58;30.30;;;13.32;;
68353;SDS011;55274;43.060;25.618;2024-01-15T04:45:24;36.55;;;14.20;;
68353;SDS011;55274;43.060;25.618;2024-01-15T04:47:54;33.75;;;12.63;;
68353;SDS011;55274;43.060;25.618;2024-01-15T04:50:21;28.92;;;13.77;;
68353;SDS011;55274;43.060;25.618;2024-01-15T04:52:47;107.18;;;17.30;;
68353;SDS011;55274;43.060;25.618;2024-01-15T04:55:13;51.78;;;15.45;;
68353;SDS011;55274;43.060;25.618;2024-01-15T04:57:39;31.80;;;13.15;;
68353;SDS011;55274;43.060;25.618;2024-01-15T05:00:05;34.47;;;13.05;;
68353;SDS011;55274;43.060;25.618;2024-01-15T05:02:31;31.20;;;13.52;;
68353;SDS011;55274;43.060;25.618;2024-01-15T05:04:57;35.17;;;12.30;;
68353;SDS011;55274;43.060;25.618;2024-01-15T05:07:22;42.95;;;13.80;;
68353;SDS011;55274;43.060;25.618;2024-01-15T05:09:48;31.38;;;14.05;;
68353;SDS011;55274;43.060;25.618;2024-01-15T05:12:14;35.72;;;14.77;;
68353;SDS011;55274;43.060;25.618;2024-01-15T05:14:40;33.47;;;13.85;;
68353;SDS011;55274;43.060;25.618;2024-01-15T05:17:05;58.72;;;17.27;;
68353;SDS011;55274;43.060;25.618;2024-01-15T05:19:31;36.22;;;16.00;;
68353;SDS011;55274;43.060;25.618;2024-01-15T05:21:57;31.13;;;14.13;;
68353;SDS011;55274;43.060;25.618;2024-01-15T05:24:23;48.20;;;18.75;;
68353;SDS011;55274;43.060;25.618;2024-01-15T05:26:49;38.90;;;16.65;;
68353;SDS011;55274;43.060;25.618;2024-01-15T05:29:14;41.97;;;16.38;;
68353;SDS011;55274;43.060;25.618;2024-01-15T05:31:40;41.13;;;14.45;;
68353;SDS011;55274;43.060;25.618;2024-01-15T05:34:06;37.25;;;13.80;;
68353;SDS011;55274;43.060;25.618;2024-01-15T05:36:32;36.28;;;15.25;;
68353;SDS011;55274;43.060;25.618;2024-01-15T05:39:00;40.17;;;16.13;;
68353;SDS011;55274;43.060;25.618;2024-01-15T05:41:26;39.17;;;13.60;;
68353;SDS011;55274;43.060;25.618;2024-01-15T05:43:52;39.95;;;16.13;;
68353;SDS011;55274;43.060;25.618;2024-01-15T05:46:17;43.05;;;14.98;;
68353;SDS011;55274;43.060;25.618;2024-01-15T05:48:43;33.75;;;13.57;;
68353;SDS011;55274;43.060;25.618;2024-01-15T05:51:09;36.53;;;13.70;;
68353;SDS011;55274;43.060;25.618;2024-01-15T05:53:35;31.98;;;14.30;;
68353;SDS011;55274;43.060;25.618;2024-01-15T05:56:01;35.22;;;14.90;;
68353;SDS011;55274;43.060;25.618;2024-01-15T05:58:26;39.03;;;16.15;;
68353;SDS011;55274;43.060;25.618;2024-01-15T06:00:52;35.85;;;13.32;;
68353;SDS011;55274;43.060;25.618;2024-01-15T06:03:18;38.10;;;12.98;;
68353;SDS011;55274;43.060;25.618;2024-01-15T06:05:44;36.35;;;14.25;;
68353;SDS011;55274;43.060;25.618;2024-01-15T06:08:10;30.73;;;13.05;;
68353;SDS011;55274;43.060;25.618;2024-01-15T06:10:35;32.75;;;14.63;;
68353;SDS011;55274;43.060;25.618;2024-01-15T06:13:01;33.13;;;14.50;;
68353;SDS011;55274;43.060;25.618;2024-01-15T06:15:27;35.03;;;14.95;;
68353;SDS011;55274;43.060;25.618;2024-01-15T06:17:53;32.33;;;13.00;;
68353;SDS011;55274;43.060;25.618;2024-01-15T06:20:18;37.53;;;16.02;;
68353;SDS011;55274;43.060;25.618;2024-01-15T06:22:44;34.38;;;15.05;;
68353;SDS011;55274;43.060;25.618;2024-01-15T06:25:10;33.55;;;16.05;;
68353;SDS011;55274;43.060;25.618;2024-01-15T06:27:36;46.60;;;15.52;;
68353;SDS011;55274;43.060;25.618;2024-01-15T06:30:01;51.50;;;16.23;;
68353;SDS011;55274;43.060;25.618;2024-01-15T06:32:27;51.90;;;18.65;;
68353;SDS011;55274;43.060;25.618;2024-01-15T06:34:54;44.20;;;18.52;;
68353;SDS011;55274;43.060;25.618;2024-01-15T06:37:19;53.05;;;20.20;;
68353;SDS011;55274;43.060;25.618;2024-01-15T06:39:45;59.53;;;19.33;;
68353;SDS011;55274;43.060;25.618;2024-01-15T06:42:11;61.72;;;21.05;;
68353;SDS011;55274;43.060;25.618;2024-01-15T06:44:37;56.95;;;17.65;;
68353;SDS011;55274;43.060;25.618;2024-01-15T06:47:03;65.32;;;20.27;;
68353;SDS011;55274;43.060;25.618;2024-01-15T06:49:30;68.20;;;21.75;;
68353;SDS011;55274;43.060;25.618;2024-01-15T06:51:56;73.45;;;23.70;;
68353;SDS011;55274;43.060;25.618;2024-01-15T06:54:22;68.15;;;25.02;;
68353;SDS011;55274;43.060;25.618;2024-01-15T06:56:49;68.05;;;23.95;;
68353;SDS011;55274;43.060;25.618;2024-01-15T06:59:15;77.93;;;29.17;;
68353;SDS011;55274;43.060;25.618;2024-01-15T07:01:41;79.63;;;29.95;;
68353;SDS011;55274;43.060;25.618;2024-01-15T07:04:09;85.63;;;27.98;;
68353;SDS011;55274;43.060;25.618;2024-01-15T07:06:35;80.13;;;30.95;;
68353;SDS011;55274;43.060;25.618;2024-01-15T07:09:03;82.47;;;29.60;;
68353;SDS011;55274;43.060;25.618;2024-01-15T07:11:30;104.13;;;33.95;;
68353;SDS011;55274;43.060;25.618;2024-01-15T07:13:58;92.35;;;31.20;;
68353;SDS011;55274;43.060;25.618;2024-01-15T07:16:24;92.57;;;30.42;;
68353;SDS011;55274;43.060;25.618;2024-01-15T07:18:50;105.65;;;33.95;;
68353;SDS011;55274;43.060;25.618;2024-01-15T07:21:16;92.60;;;33.10;;
68353;SDS011;55274;43.060;25.618;2024-01-15T07:23:41;95.50;;;36.03;;
68353;SDS011;55274;43.060;25.618;2024-01-15T07:26:07;99.40;;;37.15;;
68353;SDS011;55274;43.060;25.618;2024-01-15T07:28:35;123.10;;;37.45;;
68353;SDS011;55274;43.060;25.618;2024-01-15T07:31:02;107.07;;;38.17;;
68353;SDS011;55274;43.060;25.618;2024-01-15T07:33:29;133.15;;;45.10;;
68353;SDS011;55274;43.060;25.618;2024-01-15T07:35:54;134.00;;;44.63;;
68353;SDS011;55274;43.060;25.618;2024-01-15T07:38:20;116.57;;;42.20;;
68353;SDS011;55274;43.060;25.618;2024-01-15T07:40:46;122.68;;;42.55;;
68353;SDS011;55274;43.060;25.618;2024-01-15T07:43:14;106.35;;;40.83;;
68353;SDS011;55274;43.060;25.618;2024-01-15T07:45:40;120.05;;;42.28;;
68353;SDS011;55274;43.060;25.618;2024-01-15T07:48:06;113.82;;;41.42;;
68353;SDS011;55274;43.060;25.618;2024-01-15T07:50:32;131.00;;;43.13;;
68353;SDS011;55274;43.060;25.618;2024-01-15T07:52:57;116.15;;;43.00;;
68353;SDS011;55274;43.060;25.618;2024-01-15T07:55:23;138.82;;;44.85;;
68353;SDS011;55274;43.060;25.618;2024-01-15T07:57:49;136.32;;;50.22;;
68353;SDS011;55274;43.060;25.618;2024-01-15T08:00:17;134.18;;;47.78;;
68353;SDS011;55274;43.060;25.618;2024-01-15T08:02:42;120.35;;;44.13;;
68353;SDS011;55274;43.060;25.618;2024-01-15T08:05:08;115.38;;;40.47;;
68353;SDS011;55274;43.060;25.618;2024-01-15T08:07:34;88.25;;;35.13;;
68353;SDS011;55274;43.060;25.618;2024-01-15T08:10:00;87.55;;;31.05;;
68353;SDS011;55274;43.060;25.618;2024-01-15T08:12:26;111.15;;;32.00;;
68353;SDS011;55274;43.060;25.618;2024-01-15T08:14:51;83.38;;;29.77;;
68353;SDS011;55274;43.060;25.618;2024-01-15T08:17:17;84.90;;;28.13;;
68353;SDS011;55274;43.060;25.618;2024-01-15T08:19:43;86.15;;;28.23;;
68353;SDS011;55274;43.060;25.618;2024-01-15T08:22:09;82.20;;;28.50;;
68353;SDS011;55274;43.060;25.618;2024-01-15T08:24:35;74.90;;;27.75;;
68353;SDS011;55274;43.060;25.618;2024-01-15T08:27:01;70.25;;;26.35;;
68353;SDS011;55274;43.060;25.618;2024-01-15T08:29:27;74.68;;;27.92;;
68353;SDS011;55274;43.060;25.618;2024-01-15T08:31:53;87.22;;;31.67;;
68353;SDS011;55274;43.060;25.618;2024-01-15T08:34:18;83.35;;;31.73;;
68353;SDS011;55274;43.060;25.618;2024-01-15T08:36:44;95.30;;;33.72;;
68353;SDS011;55274;43.060;25.618;2024-01-15T08:39:10;91.30;;;34.03;;
68353;SDS011;55274;43.060;25.618;2024-01-15T08:41:36;94.22;;;35.30;;
68353;SDS011;55274;43.060;25.618;2024-01-15T08:44:02;93.80;;;33.90;;
68353;SDS011;55274;43.060;25.618;2024-01-15T08:46:28;93.47;;;34.47;;
68353;SDS011;55274;43.060;25.618;2024-01-15T08:48:54;84.75;;;35.50;;
68353;SDS011;55274;43.060;25.618;2024-01-15T08:51:19;82.45;;;34.08;;
68353;SDS011;55274;43.060;25.618;2024-01-15T08:53:45;75.28;;;29.13;;
68353;SDS011;55274;43.060;25.618;2024-01-15T08:56:11;75.65;;;29.63;;
68353;SDS011;55274;43.060;25.618;2024-01-15T08:58:37;84.57;;;31.20;;
68353;SDS011;55274;43.060;25.618;2024-01-15T09:01:02;83.15;;;30.50;;
68353;SDS011;55274;43.060;25.618;2024-01-15T09:03:28;68.80;;;27.80;;
68353;SDS011;55274;43.060;25.618;2024-01-15T09:05:55;67.57;;;26.45;;
68353;SDS011;55274;43.060;25.618;2024-01-15T09:08:20;64.45;;;26.27;;
68353;SDS011;55274;43.060;25.618;2024-01-15T09:10:46;65.22;;;22.52;;
68353;SDS011;55274;43.060;25.618;2024-01-15T09:13:12;90.70;;;24.63;;
68353;SDS011;55274;43.060;25.618;2024-01-15T09:15:38;71.32;;;20.50;;
68353;SDS011;55274;43.060;25.618;2024-01-15T09:18:04;49.60;;;18.15;;
68353;SDS011;55274;43.060;25.618;2024-01-15T09:20:30;47.40;;;18.58;;
68353;SDS011;55274;43.060;25.618;2024-01-15T09:22:56;44.85;;;18.38;;
68353;SDS011;55274;43.060;25.618;2024-01-15T09:25:22;44.30;;;16.70;;
68353;SDS011;55274;43.060;25.618;2024-01-15T09:27:47;60.67;;;18.70;;
68353;SDS011;55274;43.060;25.618;2024-01-15T09:30:13;74.45;;;19.67;;
68353;SDS011;55274;43.060;25.618;2024-01-15T09:32:39;94.50;;;19.55;;
68353;SDS011;55274;43.060;25.618;2024-01-15T09:35:05;80.95;;;18.67;;
68353;SDS011;55274;43.060;25.618;2024-01-15T09:37:32;66.15;;;15.82;;
68353;SDS011;55274;43.060;25.618;2024-01-15T09:39:57;57.60;;;16.45;;
68353;SDS011;55274;43.060;25.618;2024-01-15T09:42:24;56.65;;;16.08;;
68353;SDS011;55274;43.060;25.618;2024-01-15T09:44:51;35.38;;;13.90;;
68353;SDS011;55274;43.060;25.618;2024-01-15T09:47:17;60.65;;;13.27;;
68353;SDS011;55274;43.060;25.618;2024-01-15T09:49:47;61.80;;;16.55;;
68353;SDS011;55274;43.060;25.618;2024-01-15T09:52:13;53.85;;;13.57;;
68353;SDS011;55274;43.060;25.618;2024-01-15T09:54:42;56.13;;;16.17;;
68353;SDS011;55274;43.060;25.618;2024-01-15T09:57:09;53.97;;;13.70;;
68353;SDS011;55274;43.060;25.618;2024-01-15T09:59:36;53.20;;;14.52;;
68353;SDS011;55274;43.060;25.618;2024-01-15T10:02:04;81.88;;;17.58;;
68353;SDS011;55274;43.060;25.618;2024-01-15T10:04:31;69.55;;;18.08;;
68353;SDS011;55274;43.060;25.618;2024-01-15T10:06:57;96.88;;;24.17;;
68353;SDS011;55274;43.060;25.618;2024-01-15T10:09:25;68.80;;;19.45;;
68353;SDS011;55274;43.060;25.618;2024-01-15T10:11:51;64.65;;;15.38;;
68353;SDS011;55274;43.060;25.618;2024-01-15T10:14:16;87.63;;;19.13;;
68353;SDS011;55274;43.060;25.618;2024-01-15T10:16:42;63.78;;;18.60;;
68353;SDS011;55274;43.060;25.618;2024-01-15T10:19:08;136.82;;;31.77;;
68353;SDS011;55274;43.060;25.618;2024-01-15T10:21:34;164.30;;;29.48;;
68353;SDS011;55274;43.060;25.618;2024-01-15T10:24:01;144.63;;;27.10;;
68353;SDS011;55274;43.060;25.618;2024-01-15T10:26:28;56.92;;;14.65;;
68353;SDS011;55274;43.060;25.618;2024-01-15T10:28:54;107.85;;;18.70;;
68353;SDS011;55274;43.060;25.618;2024-01-15T10:31:20;66.65;;;17.70;;
68353;SDS011;55274;43.060;25.618;2024-01-15T10:33:49;76.43;;;16.92;;
68353;SDS011;55274;43.060;25.618;2024-01-15T10:36:16;53.08;;;15.25;;
68353;SDS011;55274;43.060;25.618;2024-01-15T10:39:02;89.63;;;19.27;;
68353;SDS011;55274;43.060;25.618;2024-01-15T10:41:28;74.22;;;15.98;;
68353;SDS011;55274;43.060;25.618;2024-01-15T10:43:54;85.60;;;15.52;;
68353;SDS011;55274;43.060;25.618;2024-01-15T10:46:20;69.28;;;14.20;;
68353;SDS011;55274;43.060;25.618;2024-01-15T10:48:45;62.03;;;13.98;;
68353;SDS011;55274;43.060;25.618;2024-01-15T10:51:11;42.63;;;12.65;;
68353;SDS011;55274;43.060;25.618;2024-01-15T10:53:40;51.40;;;11.65;;
68353;SDS011;55274;43.060;25.618;2024-01-15T10:56:07;51.65;;;13.05;;
68353;SDS011;55274;43.060;25.618;2024-01-15T10:58:36;46.78;;;13.60;;
68353;SDS011;55274;43.060;25.618;2024-01-15T11:01:05;59.47;;;13.18;;
68353;SDS011;55274;43.060;25.618;2024-01-15T11:03:31;33.78;;;11.82;;
68353;SDS011;55274;43.060;25.618;2024-01-15T11:05:58;42.40;;;12.70;;
68353;SDS011;55274;43.060;25.618;2024-01-15T11:08:25;56.25;;;15.38;;
68353;SDS011;55274;43.060;25.618;2024-01-15T11:10:51;61.85;;;14.65;;
68353;SDS011;55274;43.060;25.618;2024-01-15T11:13:21;35.33;;;9.57;;
68353;SDS011;55274;43.060;25.618;2024-01-15T11:16:05;33.13;;;10.85;;
68353;SDS011;55274;43.060;25.618;2024-01-15T11:18:34;23.92;;;4.18;;
68353;SDS011;55274;43.060;25.618;2024-01-15T11:23:44;18.33;;;3.45;;
68353;SDS011;55274;43.060;25.618;2024-01-15T11:29:05;6.38;;;2.50;;
68353;SDS011;55274;43.060;25.618;2024-01-15T11:34:08;14.57;;;3.30;;
68353;SDS011;55274;43.060;25.618;2024-01-15T11:39:40;25.13;;;3.05;;
68353;SDS011;55274;43.060;25.618;2024-01-15T11:42:05;5.43;;;2.45;;
68353;SDS011;55274;43.060;25.618;2024-01-15T11:44:31;4.93;;;2.33;;
68353;SDS011;55274;43.060;25.618;2024-01-15T11:52:13;7.97;;;2.45;;
68353;SDS011;55274;43.060;25.618;2024-01-15T11:54:45;3.85;;;1.67;;
68353;SDS011;55274;43.060;25.618;2024-01-15T11:58:21;3.67;;;2.10;;
68353;SDS011;55274;43.060;25.618;2024-01-15T12:00:17;3.05;;;1.83;;
68353;SDS011;55274;43.060;25.618;2024-01-15T12:02:44;8.90;;;2.42;;
68353;SDS011;55274;43.060;25.618;2024-01-15T12:05:11;9.13;;;2.53;;
68353;SDS011;55274;43.060;25.618;2024-01-15T12:07:39;26.95;;;3.08;;
68353;SDS011;55274;43.060;25.618;2024-01-15T12:10:08;6.43;;;2.25;;
68353;SDS011;55274;43.060;25.618;2024-01-15T12:12:57;6.13;;;2.63;;
68353;SDS011;55274;43.060;25.618;2024-01-15T12:15:30;37.00;;;3.25;;
68353;SDS011;55274;43.060;25.618;2024-01-15T12:17:58;10.02;;;2.15;;
68353;SDS011;55274;43.060;25.618;2024-01-15T12:20:25;28.58;;;4.10;;
68353;SDS011;55274;43.060;25.618;2024-01-15T12:22:51;4.85;;;1.98;;
68353;SDS011;55274;43.060;25.618;2024-01-15T12:25:17;10.93;;;2.60;;
68353;SDS011;55274;43.060;25.618;2024-01-15T12:27:43;4.85;;;1.58;;
68353;SDS011;55274;43.060;25.618;2024-01-15T12:30:13;5.25;;;2.15;;
68353;SDS011;55274;43.060;25.618;2024-01-15T12:32:40;4.43;;;2.30;;
68353;SDS011;55274;43.060;25.618;2024-01-15T12:35:07;85.97;;;7.13;;
68353;SDS011;55274;43.060;25.618;2024-01-15T12:37:37;15.25;;;3.72;;
68353;SDS011;55274;43.060;25.618;2024-01-15T12:40:04;9.32;;;2.10;;
68353;SDS011;55274;43.060;25.618;2024-01-15T12:42:41;5.13;;;1.90;;
68353;SDS011;55274;43.060;25.618;2024-01-15T12:45:09;11.45;;;2.58;;
68353;SDS011;55274;43.060;25.618;2024-01-15T12:47:36;10.77;;;2.38;;
68353;SDS011;55274;43.060;25.618;2024-01-15T12:50:05;13.95;;;3.00;;
68353;SDS011;55274;43.060;25.618;2024-01-15T12:52:35;7.57;;;2.55;;
68353;SDS011;55274;43.060;25.618;2024-01-15T12:55:06;10.60;;;2.90;;
68353;SDS011;55274;43.060;25.618;2024-01-15T12:57:34;33.55;;;4.53;;
68353;SDS011;55274;43.060;25.618;2024-01-15T13:00:00;18.15;;;3.53;;
68353;SDS011;55274;43.060;25.618;2024-01-15T13:02:27;37.35;;;6.85;;
68353;SDS011;55274;43.060;25.618;2024-01-15T13:04:53;22.48;;;3.33;;
68353;SDS011;55274;43.060;25.618;2024-01-15T13:07:19;24.15;;;2.90;;
68353;SDS011;55274;43.060;25.618;2024-01-15T13:09:45;18.75;;;3.05;;
68353;SDS011;55274;43.060;25.618;2024-01-15T13:12:11;25.10;;;4.15;;
68353;SDS011;55274;43.060;25.618;2024-01-15T13:14:36;21.88;;;3.70;;
68353;SDS011;55274;43.060;25.618;2024-01-15T13:17:02;7.15;;;2.42;;
68353;SDS011;55274;43.060;25.618;2024-01-15T13:19:28;23.48;;;3.70;;
68353;SDS011;55274;43.060;25.618;2024-01-15T13:21:54;20.23;;;4.25;;
68353;SDS011;55274;43.060;25.618;2024-01-15T13:24:23;3.85;;;1.95;;
68353;SDS011;55274;43.060;25.618;2024-01-15T13:26:49;4.65;;;1.80;;
68353;SDS011;55274;43.060;25.618;2024-01-15T13:29:15;4.55;;;2.08;;
68353;SDS011;55274;43.060;25.618;2024-01-15T13:31:41;3.80;;;2.10;;
68353;SDS011;55274;43.060;25.618;2024-01-15T13:34:07;18.10;;;3.03;;
68353;SDS011;55274;43.060;25.618;2024-01-15T13:36:34;30.58;;;3.40;;
68353;SDS011;55274;43.060;25.618;2024-01-15T13:39:00;5.82;;;2.45;;
68353;SDS011;55274;43.060;25.618;2024-01-15T13:41:26;16.40;;;2.80;;
68353;SDS011;55274;43.060;25.618;2024-01-15T13:43:54;44.42;;;5.18;;
68353;SDS011;55274;43.060;25.618;2024-01-15T13:46:24;20.98;;;3.40;;
68353;SDS011;55274;43.060;25.618;2024-01-15T13:48:53;38.67;;;3.63;;
68353;SDS011;55274;43.060;25.618;2024-01-15T13:51:21;6.68;;;2.97;;
68353;SDS011;55274;43.060;25.618;2024-01-15T13:53:48;21.80;;;3.58;;
68353;SDS011;55274;43.060;25.618;2024-01-15T13:56:14;16.15;;;3.60;;
68353;SDS011;55274;43.060;25.618;2024-01-15T13:58:40;15.07;;;3.25;;
68353;SDS011;55274;43.060;25.618;2024-01-15T14:01:07;4.75;;;2.50;;
68353;SDS011;55274;43.060;25.618;2024-01-15T14:03:33;8.85;;;3.30;;
68353;SDS011;55274;43.060;25.618;2024-01-15T14:06:00;16.10;;;3.35;;
68353;SDS011;55274;43.060;25.618;2024-01-15T14:08:28;11.75;;;3.25;;
68353;SDS011;55274;43.060;25.618;2024-01-15T14:10:54;8.63;;;2.90;;
68353;SDS011;55274;43.060;25.618;2024-01-15T14:13:22;9.80;;;3.28;;
68353;SDS011;55274;43.060;25.618;2024-01-15T14:15:47;9.68;;;3.80;;
68353;SDS011;55274;43.060;25.618;2024-01-15T14:18:15;9.57;;;2.60;;
68353;SDS011;55274;43.060;25.618;2024-01-15T14:20:42;12.27;;;3.17;;
68353;SDS011;55274;43.060;25.618;2024-01-15T14:23:08;4.35;;;2.33;;